Terminal Aerodrome Forecast
Issued by NWS

Home | Current Version | Previous Version | Text Only | Print | Product List | Glossary On
Versions: 1 2 3 4 5 6 7 8 9 10 11 12 13 14 15 16 17 18
000
FTUS41 KCAR 250500 RRA
TAFBHB
TAF
KBHB 250559Z 2506/2606 34008KT P6SM BKN015 OVC080
     FM250700 34008KT P6SM SCT030 SCT080
     FM251400 34010G18KT P6SM SCT250
     FM260000 VRB03KT P6SM SKC
      AMD LTD TO CLD VIS AND WIND=

USA.gov is the U.S. government's official web portal to all federal, state and local government web resources and services.